Plattsmouth, Nebraska
Current Conditions -  °F | °C
As of 2:35 PM on Wednesday 26 Nov 2014 (Local Time) from KPMV Reporting Station
Overcast Overcast  
Wind Chill: 17°   Ceiling: 2100
Heat Index: 30°   Visibility: 10mi
Dew Point: 21°   Wind: 21mph
Humidity: 71%   Direction: 340°NNW
Pressure: 30.16"   Gusts: 31mph
Location:  41.01°N, 95.88°W
Report Text: KPMV 262035Z AUTO 34018G27KT 10SM OVC021 M01/M06 A3016 RMK AO2 T10121059
Loading
Personal Weather Stations






























Interactive Weather Map New forecast layout! Learn more

10-Day Weather Forecast

Advertisements
Track Severe Weather on mobile